sensor_id;sensor_type;location;lat;lon;timestamp;P1;durP1;ratioP1;P2;durP2;ratioP2
9080;SDS011;13509;50.760;6.080;2023-08-31T00:00:31;7.93;;;4.20;;
9080;SDS011;13509;50.760;6.080;2023-08-31T00:03:00;6.77;;;4.50;;
9080;SDS011;13509;50.760;6.080;2023-08-31T00:05:29;8.07;;;3.97;;
9080;SDS011;13509;50.760;6.080;2023-08-31T00:07:58;5.83;;;4.10;;
9080;SDS011;13509;50.760;6.080;2023-08-31T00:10:26;5.73;;;3.87;;
9080;SDS011;13509;50.760;6.080;2023-08-31T00:12:56;5.87;;;3.57;;
9080;SDS011;13509;50.760;6.080;2023-08-31T00:15:24;7.60;;;4.20;;
9080;SDS011;13509;50.760;6.080;2023-08-31T00:17:54;4.53;;;3.30;;
9080;SDS011;13509;50.760;6.080;2023-08-31T00:20:23;6.70;;;4.07;;
9080;SDS011;13509;50.760;6.080;2023-08-31T00:22:52;5.00;;;3.60;;
9080;SDS011;13509;50.760;6.080;2023-08-31T00:25:20;3.87;;;3.47;;
9080;SDS011;13509;50.760;6.080;2023-08-31T00:27:49;6.30;;;3.43;;
9080;SDS011;13509;50.760;6.080;2023-08-31T00:30:18;4.73;;;3.47;;
9080;SDS011;13509;50.760;6.080;2023-08-31T00:32:46;4.13;;;3.30;;
9080;SDS011;13509;50.760;6.080;2023-08-31T00:35:15;4.20;;;3.10;;
9080;SDS011;13509;50.760;6.080;2023-08-31T00:37:43;4.70;;;3.50;;
9080;SDS011;13509;50.760;6.080;2023-08-31T00:40:13;4.50;;;3.40;;
9080;SDS011;13509;50.760;6.080;2023-08-31T00:42:41;5.57;;;3.30;;
9080;SDS011;13509;50.760;6.080;2023-08-31T00:45:09;5.83;;;3.57;;
9080;SDS011;13509;50.760;6.080;2023-08-31T00:47:38;8.07;;;3.53;;
9080;SDS011;13509;50.760;6.080;2023-08-31T00:50:07;4.57;;;3.23;;
9080;SDS011;13509;50.760;6.080;2023-08-31T00:52:35;4.77;;;4.00;;
9080;SDS011;13509;50.760;6.080;2023-08-31T00:55:04;5.90;;;3.90;;
9080;SDS011;13509;50.760;6.080;2023-08-31T00:57:35;5.03;;;3.93;;
9080;SDS011;13509;50.760;6.080;2023-08-31T01:00:04;5.47;;;3.70;;
9080;SDS011;13509;50.760;6.080;2023-08-31T01:02:36;4.70;;;4.00;;
9080;SDS011;13509;50.760;6.080;2023-08-31T01:05:18;7.50;;;4.30;;
9080;SDS011;13509;50.760;6.080;2023-08-31T01:07:54;5.50;;;3.97;;
9080;SDS011;13509;50.760;6.080;2023-08-31T01:10:25;4.97;;;4.30;;
9080;SDS011;13509;50.760;6.080;2023-08-31T01:12:59;8.90;;;5.17;;
9080;SDS011;13509;50.760;6.080;2023-08-31T01:15:30;8.13;;;5.30;;
9080;SDS011;13509;50.760;6.080;2023-08-31T01:17:59;7.63;;;5.27;;
9080;SDS011;13509;50.760;6.080;2023-08-31T01:20:31;8.90;;;5.83;;
9080;SDS011;13509;50.760;6.080;2023-08-31T01:23:02;7.13;;;4.97;;
9080;SDS011;13509;50.760;6.080;2023-08-31T01:25:32;11.33;;;5.47;;
9080;SDS011;13509;50.760;6.080;2023-08-31T01:28:01;7.83;;;5.63;;
9080;SDS011;13509;50.760;6.080;2023-08-31T01:30:30;7.97;;;5.97;;
9080;SDS011;13509;50.760;6.080;2023-08-31T01:32:58;7.20;;;5.20;;
9080;SDS011;13509;50.760;6.080;2023-08-31T01:35:27;7.13;;;5.43;;
9080;SDS011;13509;50.760;6.080;2023-08-31T01:37:59;8.73;;;5.43;;
9080;SDS011;13509;50.760;6.080;2023-08-31T01:40:29;7.97;;;5.57;;
9080;SDS011;13509;50.760;6.080;2023-08-31T01:43:01;6.97;;;6.00;;
9080;SDS011;13509;50.760;6.080;2023-08-31T01:45:30;7.23;;;5.57;;
9080;SDS011;13509;50.760;6.080;2023-08-31T01:47:59;6.77;;;5.70;;
9080;SDS011;13509;50.760;6.080;2023-08-31T01:50:28;7.03;;;5.93;;
9080;SDS011;13509;50.760;6.080;2023-08-31T01:52:56;12.63;;;6.47;;
9080;SDS011;13509;50.760;6.080;2023-08-31T01:55:24;10.13;;;5.83;;
9080;SDS011;13509;50.760;6.080;2023-08-31T01:57:53;9.37;;;6.40;;
9080;SDS011;13509;50.760;6.080;2023-08-31T02:00:22;12.43;;;7.00;;
9080;SDS011;13509;50.760;6.080;2023-08-31T02:02:51;11.00;;;6.60;;
9080;SDS011;13509;50.760;6.080;2023-08-31T02:05:19;9.90;;;6.53;;
9080;SDS011;13509;50.760;6.080;2023-08-31T02:07:47;11.23;;;7.47;;
9080;SDS011;13509;50.760;6.080;2023-08-31T02:10:16;8.30;;;7.10;;
9080;SDS011;13509;50.760;6.080;2023-08-31T02:12:44;8.20;;;7.27;;
9080;SDS011;13509;50.760;6.080;2023-08-31T02:15:12;10.93;;;7.67;;
9080;SDS011;13509;50.760;6.080;2023-08-31T02:17:42;8.73;;;7.37;;
9080;SDS011;13509;50.760;6.080;2023-08-31T02:20:11;11.43;;;7.77;;
9080;SDS011;13509;50.760;6.080;2023-08-31T02:22:40;11.90;;;8.27;;
9080;SDS011;13509;50.760;6.080;2023-08-31T02:25:08;9.63;;;7.20;;
9080;SDS011;13509;50.760;6.080;2023-08-31T02:27:37;12.73;;;7.57;;
9080;SDS011;13509;50.760;6.080;2023-08-31T02:30:05;8.23;;;7.17;;
9080;SDS011;13509;50.760;6.080;2023-08-31T02:32:34;10.93;;;7.30;;
9080;SDS011;13509;50.760;6.080;2023-08-31T02:35:05;13.97;;;7.43;;
9080;SDS011;13509;50.760;6.080;2023-08-31T02:37:33;10.30;;;7.00;;
9080;SDS011;13509;50.760;6.080;2023-08-31T02:40:01;9.30;;;7.27;;
9080;SDS011;13509;50.760;6.080;2023-08-31T02:42:30;10.40;;;7.57;;
9080;SDS011;13509;50.760;6.080;2023-08-31T02:44:58;11.53;;;6.83;;
9080;SDS011;13509;50.760;6.080;2023-08-31T02:47:27;12.87;;;7.50;;
9080;SDS011;13509;50.760;6.080;2023-08-31T02:49:55;8.93;;;7.10;;
9080;SDS011;13509;50.760;6.080;2023-08-31T02:52:25;10.47;;;6.77;;
9080;SDS011;13509;50.760;6.080;2023-08-31T02:54:53;10.70;;;7.00;;
9080;SDS011;13509;50.760;6.080;2023-08-31T02:57:21;9.77;;;7.20;;
9080;SDS011;13509;50.760;6.080;2023-08-31T02:59:50;9.13;;;6.77;;
9080;SDS011;13509;50.760;6.080;2023-08-31T03:02:18;11.60;;;7.20;;
9080;SDS011;13509;50.760;6.080;2023-08-31T03:04:47;8.43;;;6.67;;
9080;SDS011;13509;50.760;6.080;2023-08-31T03:07:15;9.60;;;6.73;;
9080;SDS011;13509;50.760;6.080;2023-08-31T03:09:49;10.50;;;6.93;;
9080;SDS011;13509;50.760;6.080;2023-08-31T03:12:17;11.50;;;6.70;;
9080;SDS011;13509;50.760;6.080;2023-08-31T03:14:46;11.33;;;6.90;;
9080;SDS011;13509;50.760;6.080;2023-08-31T03:17:14;12.07;;;6.83;;
9080;SDS011;13509;50.760;6.080;2023-08-31T03:19:43;8.90;;;5.80;;
9080;SDS011;13509;50.760;6.080;2023-08-31T03:22:11;7.97;;;6.33;;
9080;SDS011;13509;50.760;6.080;2023-08-31T03:24:39;8.03;;;6.03;;
9080;SDS011;13509;50.760;6.080;2023-08-31T03:27:09;15.37;;;6.93;;
9080;SDS011;13509;50.760;6.080;2023-08-31T03:29:37;11.17;;;6.23;;
9080;SDS011;13509;50.760;6.080;2023-08-31T03:32:06;11.43;;;6.00;;
9080;SDS011;13509;50.760;6.080;2023-08-31T03:34:34;7.83;;;5.67;;
9080;SDS011;13509;50.760;6.080;2023-08-31T03:37:03;12.57;;;5.80;;
9080;SDS011;13509;50.760;6.080;2023-08-31T03:39:31;8.13;;;6.13;;
9080;SDS011;13509;50.760;6.080;2023-08-31T03:41:59;10.00;;;6.17;;
9080;SDS011;13509;50.760;6.080;2023-08-31T03:44:30;11.53;;;6.10;;
9080;SDS011;13509;50.760;6.080;2023-08-31T03:46:58;9.50;;;5.40;;
9080;SDS011;13509;50.760;6.080;2023-08-31T03:49:26;12.47;;;5.73;;
9080;SDS011;13509;50.760;6.080;2023-08-31T03:51:54;11.87;;;6.63;;
9080;SDS011;13509;50.760;6.080;2023-08-31T03:54:23;11.23;;;6.07;;
9080;SDS011;13509;50.760;6.080;2023-08-31T03:56:51;10.13;;;5.43;;
9080;SDS011;13509;50.760;6.080;2023-08-31T03:59:19;10.23;;;5.67;;
9080;SDS011;13509;50.760;6.080;2023-08-31T04:01:49;11.57;;;5.83;;
9080;SDS011;13509;50.760;6.080;2023-08-31T04:04:17;9.53;;;5.83;;
9080;SDS011;13509;50.760;6.080;2023-08-31T04:06:46;11.10;;;6.10;;
9080;SDS011;13509;50.760;6.080;2023-08-31T04:09:14;6.50;;;5.53;;
9080;SDS011;13509;50.760;6.080;2023-08-31T04:11:42;10.30;;;5.23;;
9080;SDS011;13509;50.760;6.080;2023-08-31T04:14:10;6.67;;;5.03;;
9080;SDS011;13509;50.760;6.080;2023-08-31T04:16:39;8.60;;;5.40;;
9080;SDS011;13509;50.760;6.080;2023-08-31T04:19:08;8.47;;;5.33;;
9080;SDS011;13509;50.760;6.080;2023-08-31T04:21:37;7.77;;;4.97;;
9080;SDS011;13509;50.760;6.080;2023-08-31T04:24:05;9.73;;;5.07;;
9080;SDS011;13509;50.760;6.080;2023-08-31T04:26:34;8.30;;;5.17;;
9080;SDS011;13509;50.760;6.080;2023-08-31T04:29:02;10.13;;;5.77;;
9080;SDS011;13509;50.760;6.080;2023-08-31T04:31:31;8.13;;;5.20;;
9080;SDS011;13509;50.760;6.080;2023-08-31T04:34:00;10.87;;;5.37;;
9080;SDS011;13509;50.760;6.080;2023-08-31T04:36:29;8.37;;;4.83;;
9080;SDS011;13509;50.760;6.080;2023-08-31T04:38:58;8.03;;;5.33;;
9080;SDS011;13509;50.760;6.080;2023-08-31T04:41:26;10.77;;;5.20;;
9080;SDS011;13509;50.760;6.080;2023-08-31T04:43:54;10.43;;;4.97;;
9080;SDS011;13509;50.760;6.080;2023-08-31T04:46:23;8.83;;;4.40;;
9080;SDS011;13509;50.760;6.080;2023-08-31T04:48:51;7.20;;;5.20;;
9080;SDS011;13509;50.760;6.080;2023-08-31T04:51:34;8.93;;;4.60;;
9080;SDS011;13509;50.760;6.080;2023-08-31T04:54:04;11.53;;;4.33;;
9080;SDS011;13509;50.760;6.080;2023-08-31T04:56:33;6.43;;;5.27;;
9080;SDS011;13509;50.760;6.080;2023-08-31T04:59:02;8.20;;;4.70;;
9080;SDS011;13509;50.760;6.080;2023-08-31T05:01:30;7.23;;;4.37;;
9080;SDS011;13509;50.760;6.080;2023-08-31T05:03:58;14.73;;;4.70;;
9080;SDS011;13509;50.760;6.080;2023-08-31T05:06:27;8.97;;;4.43;;
9080;SDS011;13509;50.760;6.080;2023-08-31T05:08:56;14.43;;;4.53;;
9080;SDS011;13509;50.760;6.080;2023-08-31T05:11:25;7.73;;;4.47;;
9080;SDS011;13509;50.760;6.080;2023-08-31T05:13:53;7.23;;;3.80;;
9080;SDS011;13509;50.760;6.080;2023-08-31T05:16:21;7.83;;;4.10;;
9080;SDS011;13509;50.760;6.080;2023-08-31T05:18:50;7.63;;;4.63;;
9080;SDS011;13509;50.760;6.080;2023-08-31T05:21:18;8.37;;;4.23;;
9080;SDS011;13509;50.760;6.080;2023-08-31T05:23:46;7.67;;;3.60;;
9080;SDS011;13509;50.760;6.080;2023-08-31T05:26:16;9.40;;;4.13;;
9080;SDS011;13509;50.760;6.080;2023-08-31T05:28:44;6.90;;;4.00;;
9080;SDS011;13509;50.760;6.080;2023-08-31T05:31:12;6.80;;;3.60;;
9080;SDS011;13509;50.760;6.080;2023-08-31T05:33:41;8.80;;;3.30;;
9080;SDS011;13509;50.760;6.080;2023-08-31T05:36:09;6.07;;;3.90;;
9080;SDS011;13509;50.760;6.080;2023-08-31T05:38:38;5.67;;;3.87;;
9080;SDS011;13509;50.760;6.080;2023-08-31T05:41:06;5.53;;;3.27;;
9080;SDS011;13509;50.760;6.080;2023-08-31T05:43:37;5.30;;;3.13;;
9080;SDS011;13509;50.760;6.080;2023-08-31T05:46:06;6.03;;;3.63;;
9080;SDS011;13509;50.760;6.080;2023-08-31T05:48:35;8.00;;;3.13;;
9080;SDS011;13509;50.760;6.080;2023-08-31T05:51:04;7.93;;;3.33;;
9080;SDS011;13509;50.760;6.080;2023-08-31T05:53:32;6.50;;;3.00;;
9080;SDS011;13509;50.760;6.080;2023-08-31T05:56:01;10.00;;;3.17;;
9080;SDS011;13509;50.760;6.080;2023-08-31T05:58:34;6.70;;;3.50;;
9080;SDS011;13509;50.760;6.080;2023-08-31T06:01:04;5.87;;;3.07;;
9080;SDS011;13509;50.760;6.080;2023-08-31T06:03:33;6.33;;;2.80;;
9080;SDS011;13509;50.760;6.080;2023-08-31T06:06:02;7.83;;;2.50;;
9080;SDS011;13509;50.760;6.080;2023-08-31T06:08:30;3.43;;;2.13;;
9080;SDS011;13509;50.760;6.080;2023-08-31T06:10:59;5.73;;;2.20;;
9080;SDS011;13509;50.760;6.080;2023-08-31T06:13:27;4.97;;;2.00;;
9080;SDS011;13509;50.760;6.080;2023-08-31T06:15:56;5.37;;;2.40;;
9080;SDS011;13509;50.760;6.080;2023-08-31T06:18:27;4.50;;;2.13;;
9080;SDS011;13509;50.760;6.080;2023-08-31T06:20:56;4.53;;;2.13;;
9080;SDS011;13509;50.760;6.080;2023-08-31T06:23:24;3.33;;;1.67;;
9080;SDS011;13509;50.760;6.080;2023-08-31T06:25:52;6.73;;;1.73;;
9080;SDS011;13509;50.760;6.080;2023-08-31T06:28:20;6.50;;;2.17;;
9080;SDS011;13509;50.760;6.080;2023-08-31T06:30:49;4.00;;;1.90;;
9080;SDS011;13509;50.760;6.080;2023-08-31T06:33:17;4.20;;;2.10;;
9080;SDS011;13509;50.760;6.080;2023-08-31T06:35:47;3.30;;;1.70;;
9080;SDS011;13509;50.760;6.080;2023-08-31T06:38:18;3.97;;;1.90;;
9080;SDS011;13509;50.760;6.080;2023-08-31T06:40:46;4.80;;;2.17;;
9080;SDS011;13509;50.760;6.080;2023-08-31T06:43:14;3.97;;;1.80;;
9080;SDS011;13509;50.760;6.080;2023-08-31T06:45:43;3.63;;;1.97;;
9080;SDS011;13509;50.760;6.080;2023-08-31T06:48:11;6.93;;;1.80;;
9080;SDS011;13509;50.760;6.080;2023-08-31T06:50:39;6.10;;;2.20;;
9080;SDS011;13509;50.760;6.080;2023-08-31T06:53:09;4.97;;;1.97;;
9080;SDS011;13509;50.760;6.080;2023-08-31T06:55:38;3.93;;;2.00;;
9080;SDS011;13509;50.760;6.080;2023-08-31T06:58:06;3.77;;;2.00;;
9080;SDS011;13509;50.760;6.080;2023-08-31T07:00:34;3.97;;;1.93;;
9080;SDS011;13509;50.760;6.080;2023-08-31T07:03:03;5.30;;;1.87;;
9080;SDS011;13509;50.760;6.080;2023-08-31T07:05:33;4.37;;;1.70;;
9080;SDS011;13509;50.760;6.080;2023-08-31T07:08:03;4.90;;;1.92;;
9080;SDS011;13509;50.760;6.080;2023-08-31T07:10:32;6.80;;;2.13;;
9080;SDS011;13509;50.760;6.080;2023-08-31T07:13:02;5.53;;;1.75;;
9080;SDS011;13509;50.760;6.080;2023-08-31T07:15:31;4.90;;;1.80;;
9080;SDS011;13509;50.760;6.080;2023-08-31T07:17:59;2.65;;;1.80;;
9080;SDS011;13509;50.760;6.080;2023-08-31T07:20:27;4.47;;;1.90;;
9080;SDS011;13509;50.760;6.080;2023-08-31T07:22:56;3.85;;;1.75;;
9080;SDS011;13509;50.760;6.080;2023-08-31T07:25:25;5.85;;;1.95;;
9080;SDS011;13509;50.760;6.080;2023-08-31T07:27:56;5.80;;;2.03;;
9080;SDS011;13509;50.760;6.080;2023-08-31T07:30:24;4.45;;;1.95;;
9080;SDS011;13509;50.760;6.080;2023-08-31T07:32:52;3.75;;;1.55;;
9080;SDS011;13509;50.760;6.080;2023-08-31T07:35:21;4.70;;;1.88;;
9080;SDS011;13509;50.760;6.080;2023-08-31T07:37:49;5.30;;;1.90;;
9080;SDS011;13509;50.760;6.080;2023-08-31T07:40:17;5.15;;;1.90;;
9080;SDS011;13509;50.760;6.080;2023-08-31T07:42:46;3.72;;;1.75;;
9080;SDS011;13509;50.760;6.080;2023-08-31T07:45:16;3.63;;;1.80;;
9080;SDS011;13509;50.760;6.080;2023-08-31T07:47:46;3.67;;;1.98;;
9080;SDS011;13509;50.760;6.080;2023-08-31T07:50:15;4.40;;;2.17;;
9080;SDS011;13509;50.760;6.080;2023-08-31T07:52:43;2.40;;;1.70;;
9080;SDS011;13509;50.760;6.080;2023-08-31T07:55:12;3.05;;;1.70;;
9080;SDS011;13509;50.760;6.080;2023-08-31T07:57:40;3.28;;;1.90;;
9080;SDS011;13509;50.760;6.080;2023-08-31T08:00:09;2.63;;;1.63;;
9080;SDS011;13509;50.760;6.080;2023-08-31T08:02:39;5.75;;;2.20;;
9080;SDS011;13509;50.760;6.080;2023-08-31T08:05:07;4.43;;;1.90;;
9080;SDS011;13509;50.760;6.080;2023-08-31T08:07:36;4.85;;;1.98;;
9080;SDS011;13509;50.760;6.080;2023-08-31T08:10:04;7.03;;;1.90;;
9080;SDS011;13509;50.760;6.080;2023-08-31T08:12:36;5.43;;;1.95;;
9080;SDS011;13509;50.760;6.080;2023-08-31T08:15:06;6.30;;;1.90;;
9080;SDS011;13509;50.760;6.080;2023-08-31T08:17:35;6.97;;;2.03;;
9080;SDS011;13509;50.760;6.080;2023-08-31T08:20:05;4.78;;;2.17;;
9080;SDS011;13509;50.760;6.080;2023-08-31T08:22:34;4.00;;;1.80;;
9080;SDS011;13509;50.760;6.080;2023-08-31T08:25:03;5.22;;;2.10;;
9080;SDS011;13509;50.760;6.080;2023-08-31T08:27:32;3.42;;;1.60;;
9080;SDS011;13509;50.760;6.080;2023-08-31T08:30:01;4.32;;;2.00;;
9080;SDS011;13509;50.760;6.080;2023-08-31T08:32:30;4.30;;;1.80;;
9080;SDS011;13509;50.760;6.080;2023-08-31T08:34:58;4.38;;;2.13;;
9080;SDS011;13509;50.760;6.080;2023-08-31T08:37:28;5.63;;;2.20;;
9080;SDS011;13509;50.760;6.080;2023-08-31T08:39:58;5.25;;;2.22;;
9080;SDS011;13509;50.760;6.080;2023-08-31T08:42:26;6.13;;;2.05;;
9080;SDS011;13509;50.760;6.080;2023-08-31T08:44:57;4.13;;;2.10;;
9080;SDS011;13509;50.760;6.080;2023-08-31T08:47:25;8.05;;;2.50;;
9080;SDS011;13509;50.760;6.080;2023-08-31T08:49:54;3.70;;;1.70;;
9080;SDS011;13509;50.760;6.080;2023-08-31T08:52:23;4.97;;;1.98;;
9080;SDS011;13509;50.760;6.080;2023-08-31T08:54:53;4.57;;;2.00;;
9080;SDS011;13509;50.760;6.080;2023-08-31T08:57:21;5.10;;;2.03;;
9080;SDS011;13509;50.760;6.080;2023-08-31T08:59:50;3.88;;;2.28;;
9080;SDS011;13509;50.760;6.080;2023-08-31T09:02:18;5.25;;;2.17;;
9080;SDS011;13509;50.760;6.080;2023-08-31T09:04:46;5.18;;;2.35;;
9080;SDS011;13509;50.760;6.080;2023-08-31T09:07:15;3.92;;;2.15;;
9080;SDS011;13509;50.760;6.080;2023-08-31T09:09:50;6.43;;;2.60;;
9080;SDS011;13509;50.760;6.080;2023-08-31T09:12:20;5.60;;;2.28;;
9080;SDS011;13509;50.760;6.080;2023-08-31T09:14:58;4.28;;;2.45;;
9080;SDS011;13509;50.760;6.080;2023-08-31T09:17:33;4.30;;;2.67;;
9080;SDS011;13509;50.760;6.080;2023-08-31T09:20:05;3.30;;;2.17;;
9080;SDS011;13509;50.760;6.080;2023-08-31T09:22:35;4.25;;;2.15;;
9080;SDS011;13509;50.760;6.080;2023-08-31T09:25:05;4.63;;;2.10;;
9080;SDS011;13509;50.760;6.080;2023-08-31T09:27:38;4.22;;;2.22;;
9080;SDS011;13509;50.760;6.080;2023-08-31T09:30:07;7.30;;;2.28;;
9080;SDS011;13509;50.760;6.080;2023-08-31T09:32:35;7.17;;;2.40;;
9080;SDS011;13509;50.760;6.080;2023-08-31T09:35:04;6.67;;;2.30;;
9080;SDS011;13509;50.760;6.080;2023-08-31T09:37:54;4.80;;;2.30;;
9080;SDS011;13509;50.760;6.080;2023-08-31T09:40:23;5.43;;;2.37;;
9080;SDS011;13509;50.760;6.080;2023-08-31T09:42:53;8.40;;;2.90;;
9080;SDS011;13509;50.760;6.080;2023-08-31T09:45:25;6.07;;;2.97;;
9080;SDS011;13509;50.760;6.080;2023-08-31T09:48:11;6.33;;;2.40;;
9080;SDS011;13509;50.760;6.080;2023-08-31T09:50:39;5.60;;;2.23;;
9080;SDS011;13509;50.760;6.080;2023-08-31T09:53:09;7.47;;;2.70;;
9080;SDS011;13509;50.760;6.080;2023-08-31T09:55:39;5.67;;;2.30;;
9080;SDS011;13509;50.760;6.080;2023-08-31T09:58:08;5.73;;;2.57;;
9080;SDS011;13509;50.760;6.080;2023-08-31T10:00:42;7.23;;;2.53;;
9080;SDS011;13509;50.760;6.080;2023-08-31T10:03:10;4.63;;;2.33;;
9080;SDS011;13509;50.760;6.080;2023-08-31T10:05:46;6.70;;;2.00;;
9080;SDS011;13509;50.760;6.080;2023-08-31T10:08:15;5.50;;;2.37;;
9080;SDS011;13509;50.760;6.080;2023-08-31T10:10:44;4.13;;;2.53;;
9080;SDS011;13509;50.760;6.080;2023-08-31T10:13:14;6.70;;;2.40;;
9080;SDS011;13509;50.760;6.080;2023-08-31T10:15:43;8.23;;;2.87;;
9080;SDS011;13509;50.760;6.080;2023-08-31T10:18:12;9.30;;;3.27;;
9080;SDS011;13509;50.760;6.080;2023-08-31T10:20:42;6.17;;;2.50;;
9080;SDS011;13509;50.760;6.080;2023-08-31T10:23:11;5.43;;;2.47;;
9080;SDS011;13509;50.760;6.080;2023-08-31T10:25:59;6.23;;;2.50;;
9080;SDS011;13509;50.760;6.080;2023-08-31T10:28:37;6.33;;;2.33;;
9080;SDS011;13509;50.760;6.080;2023-08-31T10:31:07;4.07;;;2.37;;
9080;SDS011;13509;50.760;6.080;2023-08-31T10:33:40;10.23;;;2.73;;
9080;SDS011;13509;50.760;6.080;2023-08-31T10:36:09;6.00;;;2.20;;
9080;SDS011;13509;50.760;6.080;2023-08-31T10:38:39;4.60;;;2.40;;
9080;SDS011;13509;50.760;6.080;2023-08-31T10:41:18;9.10;;;2.63;;
9080;SDS011;13509;50.760;6.080;2023-08-31T10:43:49;7.20;;;2.30;;
9080;SDS011;13509;50.760;6.080;2023-08-31T10:46:30;6.23;;;2.37;;
9080;SDS011;13509;50.760;6.080;2023-08-31T10:48:59;6.20;;;2.00;;
9080;SDS011;13509;50.760;6.080;2023-08-31T10:51:29;4.97;;;2.10;;
9080;SDS011;13509;50.760;6.080;2023-08-31T10:54:07;9.93;;;2.53;;
9080;SDS011;13509;50.760;6.080;2023-08-31T10:56:51;6.43;;;2.40;;
9080;SDS011;13509;50.760;6.080;2023-08-31T10:59:22;5.30;;;2.00;;
9080;SDS011;13509;50.760;6.080;2023-08-31T11:01:51;9.47;;;2.10;;
9080;SDS011;13509;50.760;6.080;2023-08-31T11:04:20;3.30;;;1.67;;
9080;SDS011;13509;50.760;6.080;2023-08-31T11:06:51;5.47;;;2.10;;
9080;SDS011;13509;50.760;6.080;2023-08-31T11:09:44;5.80;;;1.90;;
9080;SDS011;13509;50.760;6.080;2023-08-31T11:12:13;3.97;;;2.20;;
9080;SDS011;13509;50.760;6.080;2023-08-31T11:14:43;7.73;;;2.23;;
9080;SDS011;13509;50.760;6.080;2023-08-31T11:17:11;6.07;;;2.30;;
9080;SDS011;13509;50.760;6.080;2023-08-31T11:19:39;12.90;;;2.70;;
9080;SDS011;13509;50.760;6.080;2023-08-31T11:22:08;3.53;;;2.23;;
9080;SDS011;13509;50.760;6.080;2023-08-31T11:24:37;10.37;;;2.40;;
9080;SDS011;13509;50.760;6.080;2023-08-31T11:27:09;7.60;;;2.27;;
9080;SDS011;13509;50.760;6.080;2023-08-31T11:29:38;4.50;;;2.23;;
9080;SDS011;13509;50.760;6.080;2023-08-31T11:32:11;2.60;;;1.60;;
9080;SDS011;13509;50.760;6.080;2023-08-31T11:34:40;3.20;;;1.80;;
9080;SDS011;13509;50.760;6.080;2023-08-31T11:37:09;7.50;;;2.30;;
9080;SDS011;13509;50.760;6.080;2023-08-31T11:39:37;5.40;;;2.33;;
9080;SDS011;13509;50.760;6.080;2023-08-31T11:42:06;5.50;;;2.07;;
9080;SDS011;13509;50.760;6.080;2023-08-31T11:44:35;5.67;;;2.37;;
9080;SDS011;13509;50.760;6.080;2023-08-31T11:47:03;6.50;;;1.80;;
9080;SDS011;13509;50.760;6.080;2023-08-31T11:49:33;4.47;;;2.03;;
9080;SDS011;13509;50.760;6.080;2023-08-31T11:52:01;6.87;;;2.13;;
9080;SDS011;13509;50.760;6.080;2023-08-31T11:54:30;3.73;;;2.30;;
9080;SDS011;13509;50.760;6.080;2023-08-31T11:56:58;6.37;;;2.10;;
9080;SDS011;13509;50.760;6.080;2023-08-31T11:59:26;8.00;;;1.93;;
9080;SDS011;13509;50.760;6.080;2023-08-31T12:01:54;5.03;;;2.10;;
9080;SDS011;13509;50.760;6.080;2023-08-31T12:04:24;4.87;;;1.80;;
9080;SDS011;13509;50.760;6.080;2023-08-31T12:06:59;2.87;;;1.80;;
9080;SDS011;13509;50.760;6.080;2023-08-31T12:09:30;5.00;;;2.07;;
9080;SDS011;13509;50.760;6.080;2023-08-31T12:11:59;4.47;;;1.97;;
9080;SDS011;13509;50.760;6.080;2023-08-31T12:14:29;3.33;;;1.90;;
9080;SDS011;13509;50.760;6.080;2023-08-31T12:17:01;3.93;;;2.10;;
9080;SDS011;13509;50.760;6.080;2023-08-31T12:19:30;7.60;;;2.20;;
9080;SDS011;13509;50.760;6.080;2023-08-31T12:22:00;5.17;;;2.50;;
9080;SDS011;13509;50.760;6.080;2023-08-31T12:24:28;3.23;;;1.70;;
9080;SDS011;13509;50.760;6.080;2023-08-31T12:26:56;3.00;;;2.07;;
9080;SDS011;13509;50.760;6.080;2023-08-31T12:29:24;5.50;;;2.10;;
9080;SDS011;13509;50.760;6.080;2023-08-31T12:31:52;6.50;;;2.33;;
9080;SDS011;13509;50.760;6.080;2023-08-31T12:34:20;6.73;;;2.43;;
9080;SDS011;13509;50.760;6.080;2023-08-31T12:36:49;7.63;;;2.47;;
9080;SDS011;13509;50.760;6.080;2023-08-31T12:39:18;3.80;;;2.10;;
9080;SDS011;13509;50.760;6.080;2023-08-31T12:41:46;3.83;;;2.10;;
9080;SDS011;13509;50.760;6.080;2023-08-31T12:44:15;7.53;;;2.07;;
9080;SDS011;13509;50.760;6.080;2023-08-31T12:46:44;3.83;;;1.90;;
9080;SDS011;13509;50.760;6.080;2023-08-31T12:49:12;5.13;;;1.93;;
9080;SDS011;13509;50.760;6.080;2023-08-31T12:51:40;3.37;;;2.30;;
9080;SDS011;13509;50.760;6.080;2023-08-31T12:54:09;4.77;;;1.93;;
9080;SDS011;13509;50.760;6.080;2023-08-31T12:56:40;3.33;;;2.00;;
9080;SDS011;13509;50.760;6.080;2023-08-31T12:59:08;3.77;;;1.80;;
9080;SDS011;13509;50.760;6.080;2023-08-31T13:01:37;3.27;;;1.73;;
9080;SDS011;13509;50.760;6.080;2023-08-31T13:04:05;5.70;;;2.13;;
9080;SDS011;13509;50.760;6.080;2023-08-31T13:06:34;4.93;;;1.80;;
9080;SDS011;13509;50.760;6.080;2023-08-31T13:09:02;4.90;;;2.07;;
9080;SDS011;13509;50.760;6.080;2023-08-31T13:11:35;4.77;;;1.90;;
9080;SDS011;13509;50.760;6.080;2023-08-31T13:14:04;3.53;;;1.70;;
9080;SDS011;13509;50.760;6.080;2023-08-31T13:16:33;3.27;;;1.70;;
9080;SDS011;13509;50.760;6.080;2023-08-31T13:19:03;4.03;;;2.00;;
9080;SDS011;13509;50.760;6.080;2023-08-31T13:21:31;5.07;;;1.87;;
9080;SDS011;13509;50.760;6.080;2023-08-31T13:24:00;5.33;;;1.70;;
9080;SDS011;13509;50.760;6.080;2023-08-31T13:26:28;4.00;;;1.67;;
9080;SDS011;13509;50.760;6.080;2023-08-31T13:28:56;2.67;;;1.70;;
9080;SDS011;13509;50.760;6.080;2023-08-31T13:31:26;3.70;;;1.70;;
9080;SDS011;13509;50.760;6.080;2023-08-31T13:33:55;5.10;;;1.50;;
9080;SDS011;13509;50.760;6.080;2023-08-31T13:36:23;2.83;;;1.80;;
9080;SDS011;13509;50.760;6.080;2023-08-31T13:38:51;3.93;;;1.60;;
9080;SDS011;13509;50.760;6.080;2023-08-31T13:41:20;5.10;;;1.80;;
9080;SDS011;13509;50.760;6.080;2023-08-31T13:43:48;4.97;;;1.90;;
9080;SDS011;13509;50.760;6.080;2023-08-31T13:46:16;3.00;;;1.70;;
9080;SDS011;13509;50.760;6.080;2023-08-31T13:49:04;2.57;;;1.53;;
9080;SDS011;13509;50.760;6.080;2023-08-31T13:51:33;2.93;;;1.67;;
9080;SDS011;13509;50.760;6.080;2023-08-31T13:54:02;4.30;;;1.90;;
9080;SDS011;13509;50.760;6.080;2023-08-31T13:56:32;5.17;;;1.80;;
9080;SDS011;13509;50.760;6.080;2023-08-31T13:59:01;3.07;;;2.17;;
9080;SDS011;13509;50.760;6.080;2023-08-31T14:01:30;4.53;;;1.63;;
9080;SDS011;13509;50.760;6.080;2023-08-31T14:03:58;3.43;;;1.63;;
9080;SDS011;13509;50.760;6.080;2023-08-31T14:09:51;3.87;;;1.70;;
9080;SDS011;13509;50.760;6.080;2023-08-31T14:12:19;2.67;;;1.73;;
9080;SDS011;13509;50.760;6.080;2023-08-31T14:14:47;3.73;;;1.93;;
9080;SDS011;13509;50.760;6.080;2023-08-31T14:17:16;3.43;;;1.97;;
9080;SDS011;13509;50.760;6.080;2023-08-31T14:19:44;3.10;;;2.07;;
9080;SDS011;13509;50.760;6.080;2023-08-31T14:22:12;3.77;;;1.67;;
9080;SDS011;13509;50.760;6.080;2023-08-31T14:24:41;2.50;;;1.80;;
9080;SDS011;13509;50.760;6.080;2023-08-31T14:27:13;2.87;;;1.87;;
9080;SDS011;13509;50.760;6.080;2023-08-31T14:29:41;8.77;;;1.90;;
9080;SDS011;13509;50.760;6.080;2023-08-31T14:32:10;3.00;;;1.87;;
9080;SDS011;13509;50.760;6.080;2023-08-31T14:34:39;3.47;;;2.27;;
9080;SDS011;13509;50.760;6.080;2023-08-31T14:37:07;5.30;;;2.17;;
9080;SDS011;13509;50.760;6.080;2023-08-31T14:39:35;4.20;;;2.07;;
9080;SDS011;13509;50.760;6.080;2023-08-31T14:42:04;5.20;;;1.90;;
9080;SDS011;13509;50.760;6.080;2023-08-31T14:44:33;2.60;;;1.90;;
9080;SDS011;13509;50.760;6.080;2023-08-31T14:47:02;6.10;;;2.27;;
9080;SDS011;13509;50.760;6.080;2023-08-31T14:49:30;6.97;;;2.40;;
9080;SDS011;13509;50.760;6.080;2023-08-31T14:51:58;5.27;;;2.10;;
9080;SDS011;13509;50.760;6.080;2023-08-31T14:54:31;5.53;;;2.30;;
9080;SDS011;13509;50.760;6.080;2023-08-31T14:56:59;7.00;;;2.10;;
9080;SDS011;13509;50.760;6.080;2023-08-31T14:59:29;4.10;;;2.33;;
9080;SDS011;13509;50.760;6.080;2023-08-31T15:01:59;6.77;;;2.67;;
9080;SDS011;13509;50.760;6.080;2023-08-31T15:04:31;4.50;;;2.30;;
9080;SDS011;13509;50.760;6.080;2023-08-31T15:07:00;5.47;;;2.50;;
9080;SDS011;13509;50.760;6.080;2023-08-31T15:09:29;6.93;;;2.40;;
9080;SDS011;13509;50.760;6.080;2023-08-31T15:11:57;5.57;;;2.20;;
9080;SDS011;13509;50.760;6.080;2023-08-31T15:14:25;4.70;;;2.17;;
9080;SDS011;13509;50.760;6.080;2023-08-31T15:16:54;4.50;;;2.13;;